Portada
METAR-TAF:

METAR-TAF

Aeropuertos :

Aeropuerto de Logroño-Agoncillo

Logroño, España

latitud: 42-27N, longitud: 002-20W, altitud: 353 m

Observación

El informe se hizo hace 36 minutos, a las 12:00 UTC
Viento 11 kt del este
Temperatura 17°C
Humedad 77%
Presión 1020 hPa
Visibilidad 10 km o más
Escasas nubes a una altura de 2000 ft
Nubes dispersas a una altura de 6000 ft

METAR: LELO 151200Z 09011KT 9999 FEW020 SCT060 17/13 Q1020

Hora: 13:36 (12:36 UTC)

Pronóstico

El informe se hizo hace 1 hora y 36 minutos, a las 11:00 UTC
Pronóstico válido del 15 a las 12 UTC al 15 a las 21 UTC
Viento 8 kt del este
Visibilidad 10 km o más
Escasas nubes a una altura de 2000 ft

TAF: LELO 151100Z 1512/1521 10008KT 9999 FEW020

Observaciones y pronósticos meteorológicos de más de 4000 aeropuertos (mensajes METAR y TAF).

Los puntos amarillos y rojos representan las estaciones disponibles.

Ponga el ratón en el punto deseado para ver el nombre de la estación.

Haga clic para ver las observaciones y los pronósticos meteorológicos.

Para cambiar el mapa : haga clic en los botones verdes con una cruz de color negro para hacer un zoom, en el botón verde con un guión para alejar o en las flechas verdes para mapas adyacentes.


METAR-TAF: